createdAt,value
2019-03-17T00:00:50.550Z,25.07
2019-03-17T00:03:24.737Z,25.04
2019-03-17T00:05:59.138Z,25.05
2019-03-17T00:08:33.190Z,25.05
2019-03-17T00:11:07.619Z,25.04
2019-03-17T00:13:41.789Z,25.03
2019-03-17T00:16:16.310Z,25.02
2019-03-17T00:18:50.384Z,25.00
2019-03-17T00:21:24.761Z,24.99
2019-03-17T00:23:59.069Z,25.00
2019-03-17T00:26:33.448Z,24.99
2019-03-17T00:29:07.748Z,24.97
2019-03-17T00:31:42.139Z,24.98
2019-03-17T00:34:16.347Z,24.98
2019-03-17T00:36:50.578Z,24.95
2019-03-17T00:39:24.731Z,24.94
2019-03-17T00:41:59.066Z,24.92
2019-03-17T00:44:33.209Z,24.92
2019-03-17T00:47:10.565Z,24.92
2019-03-17T00:49:43.249Z,24.92
2019-03-17T00:52:17.404Z,24.92
2019-03-17T00:54:51.634Z,24.91
2019-03-17T00:57:26.242Z,24.90
2019-03-17T01:00:00.489Z,24.90
2019-03-17T01:02:34.544Z,24.88
2019-03-17T01:05:08.843Z,24.86
2019-03-17T01:07:43.152Z,24.88
2019-03-17T01:10:17.294Z,24.87
2019-03-17T01:12:51.577Z,24.87
2019-03-17T01:15:25.643Z,24.86
2019-03-17T01:17:59.879Z,24.85
2019-03-17T01:20:34.361Z,24.83
2019-03-17T01:23:08.816Z,24.82
2019-03-17T01:25:43.132Z,24.83
2019-03-17T01:28:17.257Z,24.83
2019-03-17T01:30:52.448Z,24.82
2019-03-17T01:33:26.623Z,24.81
2019-03-17T01:36:00.744Z,24.80
2019-03-17T01:38:34.996Z,24.81
2019-03-17T01:41:09.141Z,24.81
2019-03-17T01:43:43.202Z,24.80
2019-03-17T01:46:17.464Z,24.78
2019-03-17T01:48:51.386Z,24.77
2019-03-17T01:51:25.487Z,24.78
2019-03-17T01:53:59.642Z,24.78
2019-03-17T01:56:33.839Z,24.77
2019-03-17T01:59:08.153Z,24.73
2019-03-17T02:01:42.502Z,24.72
2019-03-17T02:04:16.898Z,24.73
2019-03-17T02:06:50.889Z,24.71
2019-03-17T02:09:25.061Z,24.71
2019-03-17T02:11:59.195Z,24.70
2019-03-17T02:14:33.728Z,24.68
2019-03-17T02:17:07.965Z,24.69
2019-03-17T02:19:42.208Z,24.68
2019-03-17T02:22:16.242Z,24.67
2019-03-17T02:24:50.881Z,24.67
2019-03-17T02:27:25.371Z,24.68
2019-03-17T02:29:59.566Z,24.67
2019-03-17T02:32:33.844Z,24.65
2019-03-17T02:35:08.274Z,24.65
2019-03-17T02:37:42.359Z,24.66
2019-03-17T02:40:16.923Z,24.64
2019-03-17T02:42:51.005Z,24.63
2019-03-17T02:45:25.263Z,24.64
2019-03-17T02:47:59.493Z,24.64
2019-03-17T02:50:33.665Z,24.62
2019-03-17T02:53:08.061Z,24.61
2019-03-17T02:55:42.045Z,24.60
2019-03-17T02:58:16.383Z,24.58
2019-03-17T03:00:50.854Z,24.60
2019-03-17T03:03:25.106Z,24.60
2019-03-17T03:05:59.406Z,24.59
2019-03-17T03:08:33.475Z,24.60
2019-03-17T03:11:07.767Z,24.59
2019-03-17T03:13:42.737Z,24.58
2019-03-17T03:16:16.754Z,24.58
2019-03-17T03:18:50.975Z,24.56
2019-03-17T03:21:25.325Z,24.56
2019-03-17T03:23:59.575Z,24.54
2019-03-17T03:26:33.862Z,24.53
2019-03-17T03:29:08.032Z,24.56
2019-03-17T03:31:42.086Z,24.65
2019-03-17T03:34:16.377Z,24.59
2019-03-17T03:36:50.777Z,24.55
2019-03-17T03:39:25.331Z,24.54
2019-03-17T03:41:59.619Z,24.54
2019-03-17T03:44:34.027Z,24.54
2019-03-17T03:47:08.204Z,24.53
2019-03-17T03:49:42.534Z,24.50
2019-03-17T03:52:16.924Z,24.50
2019-03-17T03:54:51.179Z,24.51
2019-03-17T03:57:25.618Z,24.39
2019-03-17T04:00:00.532Z,24.35
2019-03-17T04:02:36.296Z,24.32
2019-03-17T04:05:10.827Z,24.30
2019-03-17T04:07:45.095Z,24.27
2019-03-17T04:10:19.257Z,24.25
2019-03-17T04:12:53.585Z,24.25
2019-03-17T04:15:27.657Z,24.48
2019-03-17T04:18:02.475Z,24.50
2019-03-17T04:20:36.764Z,24.54
2019-03-17T04:23:11.047Z,24.56
2019-03-17T04:25:45.264Z,24.54
2019-03-17T04:28:19.258Z,24.55
2019-03-17T04:30:53.487Z,24.57
2019-03-17T04:33:27.784Z,24.55
2019-03-17T04:36:02.107Z,24.59
2019-03-17T04:38:36.540Z,24.59
2019-03-17T04:41:10.775Z,24.59
2019-03-17T04:43:45.257Z,24.56
2019-03-17T04:46:19.592Z,24.56
2019-03-17T04:48:53.913Z,24.54
2019-03-17T04:51:27.966Z,24.55
2019-03-17T04:54:02.279Z,24.54
2019-03-17T04:56:36.244Z,24.52
2019-03-17T04:59:10.798Z,24.52
2019-03-17T05:01:45.037Z,24.48
2019-03-17T05:04:19.313Z,24.44
2019-03-17T05:06:53.365Z,24.49
2019-03-17T05:09:27.705Z,24.50
2019-03-17T05:12:02.156Z,24.50
2019-03-17T05:14:36.400Z,24.47
2019-03-17T05:17:10.589Z,24.48
2019-03-17T05:19:46.221Z,24.48
2019-03-17T05:22:20.786Z,24.46
2019-03-17T05:24:55.102Z,24.49
2019-03-17T05:27:30.288Z,24.47
2019-03-17T05:30:04.701Z,24.47
2019-03-17T05:32:38.708Z,24.49
2019-03-17T05:35:13.245Z,24.46
2019-03-17T05:37:47.383Z,24.42
2019-03-17T05:40:21.718Z,24.41
2019-03-17T05:42:55.866Z,24.41
2019-03-17T05:45:30.479Z,24.42
2019-03-17T05:48:04.489Z,24.39
2019-03-17T05:50:38.787Z,24.40
2019-03-17T05:53:12.955Z,24.39
2019-03-17T05:55:47.283Z,24.42
2019-03-17T05:58:21.636Z,24.43
2019-03-17T06:00:55.939Z,24.37
2019-03-17T06:03:31.163Z,24.30
2019-03-17T06:06:05.384Z,24.26
2019-03-17T06:08:39.685Z,24.24
2019-03-17T06:11:13.463Z,24.23
2019-03-17T06:13:51.365Z,24.22
2019-03-17T06:16:25.535Z,24.21
2019-03-17T06:18:59.693Z,24.20
2019-03-17T06:21:33.930Z,24.21
2019-03-17T06:24:08.186Z,24.19
2019-03-17T06:26:42.516Z,24.19
2019-03-17T06:29:16.529Z,24.18
2019-03-17T06:31:50.740Z,24.31
2019-03-17T06:34:24.653Z,24.44
2019-03-17T06:36:58.689Z,24.47
2019-03-17T06:39:32.850Z,24.48
2019-03-17T06:42:07.322Z,24.50
2019-03-17T06:44:41.429Z,24.52
2019-03-17T06:47:15.549Z,24.53
2019-03-17T06:49:49.756Z,24.55
2019-03-17T06:52:24.119Z,24.54
2019-03-17T06:54:58.208Z,24.56
2019-03-17T06:57:32.302Z,24.55
2019-03-17T07:00:06.443Z,24.54
2019-03-17T07:02:41.007Z,24.56
2019-03-17T07:05:16.485Z,24.56
2019-03-17T07:07:50.911Z,24.57
2019-03-17T07:10:25.458Z,24.57
2019-03-17T07:13:00.038Z,24.59
2019-03-17T07:15:34.257Z,24.60
2019-03-17T07:18:08.523Z,24.61
2019-03-17T07:20:42.582Z,24.61
2019-03-17T07:23:16.902Z,24.59
2019-03-17T07:25:51.324Z,24.60
2019-03-17T07:28:25.424Z,24.61
2019-03-17T07:30:59.599Z,24.60
2019-03-17T07:33:33.924Z,24.56
2019-03-17T07:36:08.258Z,24.53
2019-03-17T07:38:43.356Z,24.57
2019-03-17T07:41:17.525Z,24.56
2019-03-17T07:43:51.602Z,24.54
2019-03-17T07:46:25.531Z,24.54
2019-03-17T07:48:59.627Z,24.55
2019-03-17T07:51:33.759Z,24.54
2019-03-17T07:54:07.996Z,24.56
2019-03-17T07:56:41.979Z,24.56
2019-03-17T07:59:16.269Z,24.55
2019-03-17T08:01:50.420Z,24.55
2019-03-17T08:04:27.596Z,24.58
2019-03-17T08:07:01.900Z,24.58
2019-03-17T08:09:36.100Z,24.57
2019-03-17T08:12:10.284Z,24.59
2019-03-17T08:14:44.691Z,24.59
2019-03-17T08:17:19.174Z,24.60
2019-03-17T08:19:53.504Z,24.60
2019-03-17T08:22:27.929Z,24.60
2019-03-17T08:25:02.092Z,24.62
2019-03-17T08:27:36.210Z,24.64
2019-03-17T08:30:11.333Z,24.64
2019-03-17T08:32:45.539Z,24.64
2019-03-17T08:35:19.736Z,24.65
2019-03-17T08:37:53.893Z,24.65
2019-03-17T08:40:28.007Z,24.66
2019-03-17T08:43:02.284Z,24.66
2019-03-17T08:45:36.448Z,24.66
2019-03-17T08:48:10.689Z,24.68
2019-03-17T08:50:54.754Z,24.73
2019-03-17T08:53:28.953Z,24.75
2019-03-17T08:56:03.378Z,24.80
2019-03-17T08:58:37.599Z,24.82
2019-03-17T09:01:11.776Z,24.82
2019-03-17T09:03:45.823Z,24.84
2019-03-17T09:06:19.899Z,24.85
2019-03-17T09:08:54.116Z,24.87
2019-03-17T09:11:28.031Z,24.88
2019-03-17T09:14:02.401Z,24.89
2019-03-17T09:16:36.821Z,24.89
2019-03-17T09:19:10.851Z,24.92
2019-03-17T09:21:45.148Z,24.92
2019-03-17T09:24:19.537Z,24.93
2019-03-17T09:26:53.674Z,24.94
2019-03-17T09:29:27.906Z,24.95
2019-03-17T09:32:02.167Z,24.99
2019-03-17T09:34:36.569Z,24.98
2019-03-17T09:37:10.885Z,24.97
2019-03-17T09:39:45.309Z,25.00
2019-03-17T09:42:19.353Z,25.01
2019-03-17T09:44:53.817Z,25.02
2019-03-17T09:47:27.923Z,25.05
2019-03-17T09:50:02.787Z,25.04
2019-03-17T09:52:37.105Z,25.06
2019-03-17T09:55:11.611Z,25.10
2019-03-17T09:57:45.646Z,25.07
2019-03-17T10:00:20.049Z,25.06
2019-03-17T10:02:54.337Z,25.07
2019-03-17T10:05:28.800Z,25.05
2019-03-17T10:08:03.041Z,25.07
2019-03-17T10:10:37.373Z,25.06
2019-03-17T10:13:11.715Z,25.08
2019-03-17T10:15:46.320Z,25.09
2019-03-17T10:18:20.835Z,25.11
2019-03-17T10:20:55.644Z,25.10
2019-03-17T10:23:30.076Z,25.12
2019-03-17T10:26:05.785Z,25.12
2019-03-17T10:28:39.924Z,25.14
2019-03-17T10:31:18.141Z,25.17
2019-03-17T10:33:53.624Z,25.17
2019-03-17T10:36:29.102Z,25.19
2019-03-17T10:39:12.305Z,25.19
2019-03-17T10:41:39.274Z,25.20
2019-03-17T10:44:13.330Z,25.23
2019-03-17T10:46:47.516Z,25.22
2019-03-17T10:49:21.669Z,25.19
2019-03-17T10:51:55.719Z,25.20
2019-03-17T10:54:29.785Z,25.18
2019-03-17T10:57:04.078Z,25.19
2019-03-17T10:59:38.388Z,25.21
2019-03-17T11:02:12.606Z,25.20
2019-03-17T11:04:46.797Z,25.20
2019-03-17T11:07:20.849Z,25.25
2019-03-17T11:09:54.854Z,25.25
2019-03-17T11:12:29.077Z,25.23
2019-03-17T11:15:03.042Z,25.25
2019-03-17T11:17:37.451Z,25.25
2019-03-17T11:20:12.454Z,25.26
2019-03-17T11:22:47.754Z,25.26
2019-03-17T11:25:23.189Z,25.27
2019-03-17T11:27:57.583Z,25.30
2019-03-17T11:30:31.843Z,25.27
2019-03-17T11:33:06.061Z,25.33
2019-03-17T11:35:40.610Z,25.39
2019-03-17T11:38:14.662Z,25.41
2019-03-17T11:40:48.945Z,25.43
2019-03-17T11:43:23.039Z,25.44
2019-03-17T11:45:57.337Z,25.46
2019-03-17T11:48:31.557Z,25.48
2019-03-17T11:51:05.724Z,25.49
2019-03-17T11:53:40.381Z,25.51
2019-03-17T11:56:14.770Z,25.49
2019-03-17T11:58:49.022Z,25.50
2019-03-17T12:01:23.284Z,25.52
2019-03-17T12:03:57.563Z,25.52
2019-03-17T12:06:31.540Z,25.54
2019-03-17T12:09:06.777Z,25.55
2019-03-17T12:11:41.010Z,25.58
2019-03-17T12:14:15.265Z,25.60
2019-03-17T12:16:49.542Z,25.59
2019-03-17T12:19:23.877Z,25.61
2019-03-17T12:22:08.525Z,25.64
2019-03-17T12:24:33.603Z,25.66
2019-03-17T12:27:07.722Z,25.67
2019-03-17T12:29:41.847Z,25.70
2019-03-17T12:32:15.842Z,25.69
2019-03-17T12:34:49.948Z,25.72
2019-03-17T12:37:24.227Z,25.74
2019-03-17T12:40:02.779Z,25.75
2019-03-17T12:42:34.054Z,25.74
2019-03-17T12:45:08.594Z,25.77
2019-03-17T12:47:42.888Z,25.80
2019-03-17T12:50:18.255Z,25.82
2019-03-17T12:52:52.286Z,25.83
2019-03-17T12:55:26.627Z,25.85
2019-03-17T12:58:00.732Z,25.88
2019-03-17T13:00:35.125Z,25.89
2019-03-17T13:03:09.572Z,25.89
2019-03-17T13:05:43.782Z,25.91
2019-03-17T13:08:18.202Z,25.91
2019-03-17T13:10:52.219Z,25.93
2019-03-17T13:13:26.594Z,25.94
2019-03-17T13:16:01.346Z,25.95
2019-03-17T13:18:36.171Z,25.97
2019-03-17T13:21:10.094Z,25.99
2019-03-17T13:23:44.313Z,25.99
2019-03-17T13:26:18.420Z,26.00
2019-03-17T13:28:52.813Z,26.00
2019-03-17T13:31:27.139Z,26.04
2019-03-17T13:34:01.357Z,26.06
2019-03-17T13:36:35.574Z,26.05
2019-03-17T13:39:10.698Z,26.07
2019-03-17T13:41:44.851Z,26.04
2019-03-17T13:44:19.088Z,26.07
2019-03-17T13:46:53.331Z,26.09
2019-03-17T13:49:27.363Z,26.08
2019-03-17T13:52:01.641Z,26.05
2019-03-17T13:54:35.836Z,26.06
2019-03-17T13:57:09.888Z,26.07
2019-03-17T13:59:43.934Z,26.07
2019-03-17T14:02:18.119Z,26.10
2019-03-17T14:04:52.351Z,26.09
2019-03-17T14:07:26.652Z,26.10
2019-03-17T14:10:13.099Z,26.10
2019-03-17T14:12:37.445Z,26.14
2019-03-17T14:15:12.812Z,25.99
2019-03-17T14:17:47.409Z,25.83
2019-03-17T14:20:21.767Z,25.74
2019-03-17T14:22:56.223Z,25.68
2019-03-17T14:25:31.281Z,25.64
2019-03-17T14:28:06.796Z,25.61
2019-03-17T14:30:41.864Z,25.59
2019-03-17T14:33:16.022Z,25.58
2019-03-17T14:35:50.234Z,25.57
2019-03-17T14:38:24.139Z,25.54
2019-03-17T14:40:58.528Z,25.54
2019-03-17T14:43:32.742Z,25.53
2019-03-17T14:46:07.211Z,25.52
2019-03-17T14:48:41.422Z,25.52
2019-03-17T14:51:15.655Z,25.50
2019-03-17T14:53:49.787Z,25.52
2019-03-17T14:56:24.272Z,25.50
2019-03-17T14:58:58.654Z,25.49
2019-03-17T15:01:32.839Z,25.50
2019-03-17T15:04:07.167Z,25.50
2019-03-17T15:06:41.572Z,25.49
2019-03-17T15:09:16.172Z,25.48
2019-03-17T15:11:50.582Z,25.49
2019-03-17T15:14:24.474Z,25.49
2019-03-17T15:16:58.768Z,25.48
2019-03-17T15:19:34.540Z,25.47
2019-03-17T15:22:08.956Z,25.46
2019-03-17T15:24:43.456Z,25.46
2019-03-17T15:27:17.707Z,25.46
2019-03-17T15:29:51.984Z,25.46
2019-03-17T15:32:26.339Z,25.45
2019-03-17T15:35:09.674Z,25.44
2019-03-17T15:37:44.895Z,25.44
2019-03-17T15:40:19.053Z,25.45
2019-03-17T15:42:53.341Z,25.45
2019-03-17T15:45:27.739Z,25.44
2019-03-17T15:48:04.111Z,25.45
2019-03-17T15:50:39.914Z,25.29
2019-03-17T15:53:14.646Z,25.32
2019-03-17T15:55:48.916Z,24.70
2019-03-17T15:58:23.352Z,23.79
2019-03-17T16:00:57.874Z,23.03
2019-03-17T16:03:31.935Z,22.58
2019-03-17T16:06:06.127Z,22.32
2019-03-17T16:08:40.141Z,22.10
2019-03-17T16:11:14.310Z,21.82
2019-03-17T16:13:48.532Z,21.75
2019-03-17T16:16:22.734Z,21.68
2019-03-17T16:18:57.208Z,21.59
